Time;durP1;ratioP1;P1;durP2;ratioP2;P2;SDS_P1;SDS_P2;PMS_P1;PMS_P2;Temp;Humidity;BMP_temperature;BMP_pressure;BME280_temperature;BME280_humidity;BME280_pressure;Samples;Min_cycle;Max_cycle;Signal;HPM_P1;HPM_P2
2021/12/01 00:00:21;;;;;;;5.30;2.97;;;;;;;1.23;55.46;99470.03;3095108;28;20408;-71
2021/12/01 00:01:53;;;;;;;5.95;2.92;;;;;;;1.18;55.40;99464.09;3091365;28;20054;-70
2021/12/01 00:03:25;;;;;;;4.85;2.72;;;;;;;1.22;55.36;99474.31;3094685;28;20447;-70
2021/12/01 00:04:57;;;;;;;4.93;2.60;;;;;;;1.20;55.59;99470.91;3093704;28;20125;-70
2021/12/01 00:06:29;;;;;;;4.55;2.83;;;;;;;1.20;55.37;99462.38;3096059;28;20137;-69
2021/12/01 00:08:02;;;;;;;7.00;3.00;;;;;;;1.20;55.55;99464.94;3093658;28;20050;-70
2021/12/01 00:09:34;;;;;;;6.85;3.63;;;;;;;1.18;55.60;99459.81;3093817;28;20116;-71
2021/12/01 00:11:07;;;;;;;9.52;3.28;;;;;;;1.17;55.51;99458.13;3092888;28;20124;-71
2021/12/01 00:12:38;;;;;;;5.43;3.05;;;;;;;1.16;55.74;99453.03;3095201;28;20054;-72
2021/12/01 00:14:10;;;;;;;5.93;3.30;;;;;;;1.13;55.66;99447.06;3095795;28;20155;-73
2021/12/01 00:15:42;;;;;;;7.65;3.38;;;;;;;1.11;55.61;99451.34;3090740;28;20112;-71
2021/12/01 00:17:14;;;;;;;5.05;2.80;;;;;;;1.12;55.71;99455.63;3095953;28;20058;-70
2021/12/01 00:18:46;;;;;;;4.65;2.78;;;;;;;1.09;55.64;99444.53;3094471;28;20050;-70
2021/12/01 00:20:20;;;;;;;6.63;3.40;;;;;;;1.08;55.79;99446.28;3090281;28;20046;-70
2021/12/01 00:21:52;;;;;;;5.30;3.03;;;;;;;1.08;56.11;99450.56;3095598;28;20054;-70
2021/12/01 00:23:24;;;;;;;6.03;3.40;;;;;;;1.07;56.11;99448.88;3093312;28;20070;-70
2021/12/01 00:24:56;;;;;;;6.18;3.30;;;;;;;1.04;56.25;99444.63;3095624;28;20073;-70
2021/12/01 00:26:29;;;;;;;5.55;3.00;;;;;;;1.07;56.14;99452.28;3094409;28;20054;-71
2021/12/01 00:28:00;;;;;;;5.93;3.13;;;;;;;1.06;56.34;99460.81;3090334;28;20061;-70
2021/12/01 00:29:32;;;;;;;5.38;2.65;;;;;;;1.04;56.39;99457.44;3094842;28;20050;-70
2021/12/01 00:31:04;;;;;;;4.72;2.70;;;;;;;1.05;56.41;99466.81;3094352;28;20109;-70
2021/12/01 00:32:36;;;;;;;7.72;3.17;;;;;;;1.04;56.34;99471.97;3095679;28;20050;-72
2021/12/01 00:34:09;;;;;;;6.40;2.65;;;;;;;1.04;56.30;99460.00;3094149;28;20083;-72
2021/12/01 00:35:41;;;;;;;5.45;3.08;;;;;;;1.03;56.58;99452.31;3092715;28;20502;-69
2021/12/01 00:37:13;;;;;;;5.63;2.85;;;;;;;1.02;56.41;99454.03;3094132;28;20512;-72
2021/12/01 00:38:45;;;;;;;4.55;2.67;;;;;;;1.02;56.60;99464.28;3094679;28;20475;-73
2021/12/01 00:40:17;;;;;;;5.47;2.75;;;;;;;0.92;56.50;99455.03;3094897;28;20054;-73
2021/12/01 00:41:51;;;;;;;6.43;3.33;;;;;;;1.00;56.47;99460.03;3094037;28;20277;-73
2021/12/01 00:43:25;;;;;;;6.80;3.28;;;;;;;1.00;56.75;99462.59;3094384;28;20046;-73
2021/12/01 00:45:00;;;;;;;6.45;2.85;;;;;;;1.00;56.57;99454.91;3094360;28;20416;-73
2021/12/01 00:46:39;;;;;;;4.07;2.22;;;;;;;0.99;56.64;99451.50;3090786;28;20519;-72
2021/12/01 00:48:11;;;;;;;4.70;2.78;;;;;;;0.99;56.42;99450.66;3094719;28;20046;-72
2021/12/01 00:49:43;;;;;;;5.75;2.72;;;;;;;0.94;56.44;99445.56;3092986;28;20046;-71
2021/12/01 00:51:16;;;;;;;4.13;2.55;;;;;;;1.00;56.58;99455.75;3092894;28;20057;-71
2021/12/01 00:52:48;;;;;;;4.43;2.85;;;;;;;1.00;56.53;99453.19;3093660;28;20069;-71
2021/12/01 00:54:20;;;;;;;4.75;2.70;;;;;;;1.00;56.59;99445.50;3095465;28;20534;-71
2021/12/01 00:55:52;;;;;;;4.40;2.65;;;;;;;0.99;56.56;99454.06;3088745;28;20046;-72
2021/12/01 00:57:25;;;;;;;7.35;2.80;;;;;;;1.01;56.58;99447.22;3089812;28;20051;-72
2021/12/01 00:58:57;;;;;;;5.80;3.03;;;;;;;1.00;56.61;99437.81;3094119;28;20057;-71
2021/12/01 01:00:30;;;;;;;4.13;2.80;;;;;;;1.01;56.56;99442.09;3094425;28;20050;-71
2021/12/01 01:02:02;;;;;;;4.78;2.92;;;;;;;1.01;56.51;99444.66;3093130;28;20058;-72
2021/12/01 01:03:35;;;;;;;5.50;2.50;;;;;;;1.02;56.44;99437.81;3093871;28;20050;-72
2021/12/01 01:05:07;;;;;;;7.90;2.88;;;;;;;1.02;56.44;99437.81;3093210;28;20042;-72
2021/12/01 01:06:39;;;;;;;4.72;2.60;;;;;;;1.03;56.47;99442.06;3094728;28;20430;-71
2021/12/01 01:08:11;;;;;;;5.68;2.60;;;;;;;1.03;56.57;99437.78;3094249;28;20495;-72
2021/12/01 01:09:43;;;;;;;4.82;2.83;;;;;;;1.04;56.49;99436.94;3095047;28;20145;-71
2021/12/01 01:16:58;;;;;;;5.78;3.00;;;;;;;1.01;56.22;99436.97;3094758;28;20433;-71
2021/12/01 01:18:31;;;;;;;6.25;3.00;;;;;;;1.01;56.45;99443.81;3094422;28;20046;-71
2021/12/01 01:20:04;;;;;;;5.53;2.90;;;;;;;1.02;56.44;99441.22;3092030;28;20054;-71
2021/12/01 01:21:39;;;;;;;4.55;2.50;;;;;;;1.01;56.39;99434.41;3094242;28;20081;-72
2021/12/01 01:23:11;;;;;;;4.80;2.63;;;;;;;1.01;56.48;99431.84;3093575;28;20072;-71
2021/12/01 01:24:42;;;;;;;5.20;2.45;;;;;;;1.02;56.41;99423.28;3090054;28;20050;-71
2021/12/01 01:26:16;;;;;;;4.82;2.50;;;;;;;1.03;56.51;99411.28;3094220;28;20058;-71
2021/12/01 01:27:48;;;;;;;5.45;2.88;;;;;;;1.03;56.33;99407.00;3093172;28;20444;-71
2021/12/01 01:29:22;;;;;;;4.28;2.25;;;;;;;1.04;56.36;99403.59;3094635;28;20479;-71
2021/12/01 01:30:54;;;;;;;4.85;2.35;;;;;;;1.04;56.35;99403.59;3091866;28;20073;-71
2021/12/01 01:32:26;;;;;;;5.18;2.58;;;;;;;1.04;56.31;99401.03;3092571;28;20050;-72
2021/12/01 01:33:58;;;;;;;5.65;2.83;;;;;;;1.05;56.30;99405.28;3093973;28;20050;-70
2021/12/01 01:35:30;;;;;;;5.28;3.00;;;;;;;1.05;56.30;99392.47;3094339;28;20093;-70
2021/12/01 01:37:02;;;;;;;5.43;2.83;;;;;;;1.05;56.31;99387.31;3094204;28;20547;-70
2021/12/01 01:38:33;;;;;;;5.90;2.65;;;;;;;1.06;56.06;99377.91;3090832;28;20046;-70
2021/12/01 01:40:06;;;;;;;6.97;3.15;;;;;;;1.02;56.13;99363.44;3094159;28;20502;-70
2021/12/01 01:41:38;;;;;;;4.40;2.33;;;;;;;1.09;56.21;99365.88;3093895;28;20539;-70
2021/12/01 01:43:10;;;;;;;4.70;2.92;;;;;;;1.08;56.22;99360.81;3088840;28;20051;-70
2021/12/01 01:44:43;;;;;;;5.82;2.58;;;;;;;1.07;56.06;99365.09;3094481;28;20128;-72
2021/12/01 01:46:16;;;;;;;5.28;2.75;;;;;;;1.09;55.96;99367.63;3092513;28;20054;-72
2021/12/01 01:47:58;;;;;;;3.95;2.35;;;;;;;1.06;56.09;99368.50;3094723;28;20153;-72
2021/12/01 01:49:42;;;;;;;3.88;2.50;;;;;;;1.06;56.03;99371.06;3093354;28;20054;-72
2021/12/01 01:51:15;;;;;;;;;;;;;;;1.01;56.35;99377.16;3090543;28;20129;-71
2021/12/01 01:52:47;;;;;;;5.25;2.88;;;;;;;0.98;56.39;99375.47;3093574;28;19930;-71
2021/12/01 01:54:19;;;;;;;7.28;3.05;;;;;;;0.98;56.34;99375.47;3093161;28;20050;-72
2021/12/01 01:55:52;;;;;;;6.35;3.08;;;;;;;0.97;56.36;99378.03;3094627;28;20050;-72
2021/12/01 01:57:24;;;;;;;7.18;3.65;;;;;;;0.96;56.49;99378.91;3092404;28;20058;-72
2021/12/01 01:58:56;;;;;;;6.35;3.38;;;;;;;0.95;56.38;99375.50;3095085;28;20050;-71
2021/12/01 02:00:29;;;;;;;6.40;3.72;;;;;;;0.94;56.58;99366.09;3093999;28;20054;-71
2021/12/01 02:02:01;;;;;;;7.65;3.42;;;;;;;0.90;56.64;99360.19;3088279;28;20086;-71
2021/12/01 02:03:34;;;;;;;8.38;3.75;;;;;;;0.85;56.70;99343.16;3094119;28;20852;-71
2021/12/01 02:05:07;;;;;;;8.23;3.38;;;;;;;0.90;56.86;99359.34;3091734;28;20535;-71
2021/12/01 02:06:38;;;;;;;7.90;3.85;;;;;;;0.88;56.96;99363.63;3095207;28;20058;-72
2021/12/01 02:08:16;;;;;;;10.10;3.63;;;;;;;0.87;56.86;99349.97;3093444;28;20054;-71
2021/12/01 02:09:49;;;;;;;6.95;3.75;;;;;;;0.87;56.83;99364.50;3089415;28;20058;-71
2021/12/01 02:11:22;;;;;;;8.77;3.70;;;;;;;0.77;56.89;99342.41;3089676;28;20042;-72
2021/12/01 02:12:54;;;;;;;;;;;;;;;0.81;56.96;99362.00;3093760;28;20385;-71
2021/12/01 02:14:27;;;;;;;7.25;3.80;;;;;;;0.77;57.00;99363.78;3094805;28;19936;-72
2021/12/01 02:16:01;;;;;;;9.60;4.78;;;;;;;0.77;57.16;99358.66;3092358;28;20068;-71
2021/12/01 02:17:33;;;;;;;9.63;4.00;;;;;;;0.75;57.12;99362.09;3092115;28;20066;-71
2021/12/01 02:19:05;;;;;;;8.93;3.80;;;;;;;0.75;57.30;99372.34;3093864;28;20054;-71
2021/12/01 02:20:38;;;;;;;7.55;4.30;;;;;;;0.75;57.34;99375.75;3087917;28;20448;-71
2021/12/01 02:22:10;;;;;;;7.63;4.18;;;;;;;0.70;57.34;99377.50;3094367;28;20153;-71
2021/12/01 02:23:44;;;;;;;11.18;4.20;;;;;;;0.66;57.57;99378.44;3092873;28;20049;-71
2021/12/01 02:25:16;;;;;;;8.93;4.25;;;;;;;0.72;57.56;99388.59;3094566;28;20042;-71
2021/12/01 02:26:51;;;;;;;7.65;3.65;;;;;;;0.73;57.49;99384.31;3093476;28;20562;-71
2021/12/01 02:28:23;;;;;;;13.45;4.10;;;;;;;0.74;57.69;99386.88;3089417;28;20058;-71
2021/12/01 02:29:55;;;;;;;9.88;4.18;;;;;;;0.74;57.63;99388.56;3094253;28;20046;-71
2021/12/01 02:31:33;;;;;;;9.48;3.60;;;;;;;0.72;57.77;99380.06;3092577;28;20477;-72
2021/12/01 02:33:05;;;;;;;6.70;3.47;;;;;;;0.72;57.63;99378.34;3094783;28;20057;-71
2021/12/01 02:34:38;;;;;;;7.65;3.72;;;;;;;0.73;57.60;99386.88;3094663;28;20578;-72
2021/12/01 02:36:13;;;;;;;7.22;3.60;;;;;;;0.72;57.71;99386.03;3093242;28;20108;-71
2021/12/01 02:37:45;;;;;;;7.18;3.67;;;;;;;0.72;57.76;99390.31;3084731;28;20050;-72
2021/12/01 02:39:17;;;;;;;9.93;3.83;;;;;;;0.73;57.79;99390.28;3092952;28;20108;-72
2021/12/01 02:40:49;;;;;;;6.10;3.35;;;;;;;0.73;57.71;99381.75;3095926;28;20065;-72
2021/12/01 02:42:22;;;;;;;9.32;3.90;;;;;;;0.71;57.93;99374.09;3095390;28;20066;-72
2021/12/01 02:43:54;;;;;;;7.90;4.15;;;;;;;0.67;57.85;99372.44;3095017;28;20101;-72
2021/12/01 02:45:26;;;;;;;15.25;3.90;;;;;;;0.65;57.89;99369.03;3095868;28;21029;-71
2021/12/01 02:47:00;;;;;;;8.20;4.10;;;;;;;0.70;57.95;99381.78;3090541;28;20051;-70
2021/12/01 02:48:35;;;;;;;;;;;;;;;0.62;58.03;99377.63;3096965;28;20050;-70
2021/12/01 02:50:08;;;;;;;6.75;3.65;;;;;;;0.58;58.10;99372.53;3094646;28;20410;-70
2021/12/01 02:51:41;;;;;;;9.75;4.45;;;;;;;0.57;57.99;99381.94;3095746;28;20121;-72
2021/12/01 02:53:13;;;;;;;9.60;4.15;;;;;;;0.57;58.33;99381.09;3095471;28;20050;-71
2021/12/01 02:54:45;;;;;;;10.93;4.80;;;;;;;0.56;58.26;99377.69;3091930;28;20051;-72
2021/12/01 02:56:21;;;;;;;9.85;4.38;;;;;;;0.56;58.38;99394.75;3096237;28;20058;-71
2021/12/01 02:57:54;;;;;;;6.40;3.72;;;;;;;0.54;58.24;99397.34;3095590;28;20464;-71
2021/12/01 02:59:27;;;;;;;9.85;4.63;;;;;;;0.54;58.47;99381.13;3096922;28;20358;-71
2021/12/01 03:01:02;;;;;;;7.63;3.83;;;;;;;0.52;58.66;99381.13;3094025;28;20046;-71
2021/12/01 03:02:34;;;;;;;11.20;4.50;;;;;;;0.50;58.60;99377.72;3093631;28;20054;-71
2021/12/01 03:04:06;;;;;;;8.70;4.45;;;;;;;0.49;58.60;99383.72;3096018;28;20140;-71
2021/12/01 03:05:38;;;;;;;7.32;3.65;;;;;;;0.51;58.52;99386.28;3096279;28;20468;-71
2021/12/01 03:07:13;;;;;;;7.85;3.72;;;;;;;0.52;58.46;99381.13;3090521;28;20050;-70
2021/12/01 03:08:46;;;;;;;6.75;3.17;;;;;;;0.53;58.38;99375.13;3093761;28;20054;-70
2021/12/01 03:10:18;;;;;;;5.57;3.03;;;;;;;0.56;58.34;99374.25;3095973;28;20050;-70
2021/12/01 03:11:50;;;;;;;6.32;2.70;;;;;;;0.57;58.33;99381.94;3095746;28;20054;-71
2021/12/01 03:13:24;;;;;;;9.10;4.00;;;;;;;0.61;58.00;99388.72;3094158;28;20609;-70
2021/12/01 03:14:57;;;;;;;7.22;3.40;;;;;;;0.65;57.84;99382.72;3096092;28;20405;-70
2021/12/01 03:16:28;;;;;;;8.20;3.45;;;;;;;0.72;57.43;99395.44;3094555;28;20050;-71
2021/12/01 03:18:00;;;;;;;9.90;4.13;;;;;;;0.75;57.46;99383.44;3096698;28;20050;-71
2021/12/01 03:19:32;;;;;;;7.82;3.60;;;;;;;0.82;57.30;99381.66;3095774;28;20576;-71
2021/12/01 03:21:04;;;;;;;6.13;2.72;;;;;;;0.79;57.02;99361.19;3091942;28;20046;-71
2021/12/01 03:22:38;;;;;;;5.05;2.60;;;;;;;0.88;57.06;99366.19;3095010;28;20043;-71
2021/12/01 03:24:10;;;;;;;6.88;3.13;;;;;;;0.92;56.89;99365.28;3090576;28;20157;-70
2021/12/01 03:25:43;;;;;;;5.45;2.65;;;;;;;0.97;56.80;99375.47;3094285;28;20070;-71
2021/12/01 03:27:16;;;;;;;5.05;2.78;;;;;;;0.91;56.77;99351.59;3094930;28;20046;-71
2021/12/01 03:28:48;;;;;;;4.87;2.60;;;;;;;1.00;56.80;99354.91;3093944;28;20066;-69
2021/12/01 03:30:20;;;;;;;4.13;1.98;;;;;;;1.06;56.54;99359.97;3095400;28;20380;-70
2021/12/01 03:31:52;;;;;;;4.05;2.17;;;;;;;1.07;56.42;99354.00;3089816;28;20043;-70
2021/12/01 03:33:24;;;;;;;4.38;2.58;;;;;;;1.13;56.50;99357.31;3096111;28;20046;-69
2021/12/01 03:34:57;;;;;;;4.47;2.22;;;;;;;1.18;56.55;99358.94;3096124;28;20054;-69
2021/12/01 03:36:29;;;;;;;;;;;;;;;1.17;56.57;99370.94;3095779;28;20108;-70
2021/12/01 03:38:03;;;;;;;4.80;2.20;;;;;;;1.22;56.35;99381.13;3094807;28;19929;-69
2021/12/01 03:39:35;;;;;;;4.43;2.25;;;;;;;1.25;56.23;99383.66;3091809;28;20051;-70
2021/12/01 03:41:07;;;;;;;5.40;2.15;;;;;;;1.28;56.30;99387.03;3094560;28;20046;-69
2021/12/01 03:42:39;;;;;;;4.97;2.50;;;;;;;1.33;56.19;99385.25;3095088;28;20539;-69
2021/12/01 03:44:11;;;;;;;3.97;2.20;;;;;;;1.34;56.03;99375.81;3096124;28;20116;-70
2021/12/01 03:45:42;;;;;;;4.45;2.28;;;;;;;1.44;55.92;99379.09;3089193;28;20493;-70
2021/12/01 03:47:14;;;;;;;3.47;2.05;;;;;;;1.47;55.75;99372.19;3093076;28;20061;-70
2021/12/01 03:48:46;;;;;;;4.25;2.20;;;;;;;1.53;55.89;99361.00;3096101;28;20061;-71
2021/12/01 03:50:18;;;;;;;6.18;2.88;;;;;;;1.56;55.72;99369.47;3093552;28;20054;-71
2021/12/01 03:51:50;;;;;;;4.45;2.35;;;;;;;1.62;55.56;99373.69;3092417;28;20050;-70
2021/12/01 03:53:24;;;;;;;6.20;2.55;;;;;;;1.59;55.64;99364.31;3093429;28;20054;-70
2021/12/01 03:54:56;;;;;;;4.45;2.22;;;;;;;1.69;55.36;99371.88;3094400;28;20492;-70
2021/12/01 03:56:30;;;;;;;5.15;2.28;;;;;;;1.72;55.36;99372.69;3095467;28;20436;-69
2021/12/01 03:58:01;;;;;;;;;;;;;;;1.72;55.65;99376.97;3092661;28;20277;-69
2021/12/01 03:59:33;;;;;;;8.18;2.40;;;;;;;1.71;55.34;99381.22;3095455;28;19921;-70
2021/12/01 04:01:10;;;;;;;5.45;2.00;;;;;;;1.78;55.25;99387.13;3094713;28;20046;-70
2021/12/01 04:02:42;;;;;;;4.05;2.33;;;;;;;1.81;55.14;99382.78;3094616;28;20078;-70
2021/12/01 04:04:14;;;;;;;4.07;2.00;;;;;;;1.86;55.20;99379.28;3095162;28;20058;-69
2021/12/01 04:05:46;;;;;;;4.55;2.38;;;;;;;1.87;54.98;99384.41;3092206;28;20557;-70
2021/12/01 04:07:18;;;;;;;6.40;2.22;;;;;;;1.94;55.03;99387.72;3095739;28;20062;-69
2021/12/01 04:08:51;;;;;;;4.18;2.25;;;;;;;1.97;54.90;99398.78;3094646;28;20046;-70
2021/12/01 04:10:23;;;;;;;;;;;;;;;1.98;55.13;99402.19;3096192;28;20108;-72
2021/12/01 04:11:55;;;;;;;4.88;2.70;;;;;;;2.01;54.98;99397.88;3094748;28;19926;-71
2021/12/01 04:13:27;;;;;;;4.97;2.92;;;;;;;2.04;54.81;99387.56;3093547;28;20050;-71
2021/12/01 04:14:59;;;;;;;6.90;2.70;;;;;;;2.10;54.91;99396.00;3094996;28;20124;-71
2021/12/01 04:16:31;;;;;;;7.13;3.30;;;;;;;2.15;54.55;99396.78;3093641;28;20054;-71
2021/12/01 04:18:03;;;;;;;4.75;2.45;;;;;;;2.16;54.48;99389.06;3092110;28;20447;-71
2021/12/01 04:19:35;;;;;;;5.50;2.58;;;;;;;2.20;54.49;99384.72;3094664;28;20432;-72
2021/12/01 04:21:06;;;;;;;5.75;2.75;;;;;;;2.23;54.26;99390.63;3094344;28;20042;-72
2021/12/01 04:22:38;;;;;;;6.22;3.05;;;;;;;2.28;54.23;99395.69;3094662;28;20046;-73
2021/12/01 04:24:12;;;;;;;6.65;3.22;;;;;;;2.30;54.34;99403.38;3092662;28;20582;-72
2021/12/01 04:25:44;;;;;;;6.40;2.78;;;;;;;2.32;54.42;99401.63;3094193;28;20073;-72
2021/12/01 04:27:15;;;;;;;6.07;2.35;;;;;;;2.36;54.17;99403.25;3094828;28;20451;-73
2021/12/01 04:28:47;;;;;;;5.45;3.00;;;;;;;2.39;53.96;99392.91;3088862;28;20078;-72
2021/12/01 04:30:23;;;;;;;5.88;3.03;;;;;;;2.41;54.22;99399.72;3094820;28;20054;-70
2021/12/01 04:31:55;;;;;;;7.55;2.80;;;;;;;2.41;54.14;99386.88;3092383;28;20444;-71
2021/12/01 04:33:27;;;;;;;8.57;3.25;;;;;;;2.44;53.86;99402.25;3095578;28;20432;-71
2021/12/01 04:34:59;;;;;;;6.07;3.00;;;;;;;2.46;53.87;99405.63;3093209;28;20042;-71
2021/12/01 04:36:34;;;;;;;6.45;3.15;;;;;;;2.49;53.78;99407.31;3090812;28;20578;-71
2021/12/01 04:38:06;;;;;;;6.85;3.50;;;;;;;2.47;53.50;99391.06;3094447;28;20046;-71
2021/12/01 04:39:39;;;;;;;5.65;3.03;;;;;;;2.48;53.61;99391.03;3091989;28;20082;-71
2021/12/01 04:41:13;;;;;;;6.63;3.03;;;;;;;2.49;53.72;99392.72;3095013;28;20121;-70
2021/12/01 04:42:45;;;;;;;7.45;3.42;;;;;;;2.50;53.71;99388.44;3094514;28;20073;-70
2021/12/01 04:44:19;;;;;;;8.05;3.50;;;;;;;2.49;53.73;99390.16;3095076;28;20596;-70
2021/12/01 04:45:58;;;;;;;7.38;3.45;;;;;;;2.51;53.76;99377.25;3094052;28;20102;-70
2021/12/01 04:47:33;;;;;;;5.97;3.38;;;;;;;2.55;53.69;99383.22;3088443;28;20524;-70
2021/12/01 04:49:05;;;;;;;4.95;2.63;;;;;;;2.56;53.77;99385.75;3095163;28;20046;-70
2021/12/01 04:50:37;;;;;;;7.95;2.88;;;;;;;2.57;53.66;99384.00;3091242;28;20046;-70
2021/12/01 04:52:11;;;;;;;5.95;2.88;;;;;;;2.58;53.83;99386.56;3091398;28;20050;-70
2021/12/01 04:53:43;;;;;;;5.63;2.92;;;;;;;2.60;53.70;99378.81;3094025;28;20062;-70
2021/12/01 04:55:16;;;;;;;5.80;2.70;;;;;;;2.59;53.67;99369.41;3090241;28;20182;-70
2021/12/01 04:56:48;;;;;;;;;;;;;;;2.53;53.93;99388.38;3094944;28;20054;-70
2021/12/01 04:58:21;;;;;;;8.18;3.97;;;;;;;2.53;53.82;99356.69;3093191;28;19922;-70
2021/12/01 04:59:53;;;;;;;5.50;3.17;;;;;;;2.53;53.98;99377.25;3094978;28;20054;-72
2021/12/01 05:01:25;;;;;;;6.35;3.22;;;;;;;2.49;53.92;99382.44;3094350;28;20109;-71
2021/12/01 05:02:57;;;;;;;6.80;3.60;;;;;;;2.50;53.78;99381.56;3091015;28;20457;-71
2021/12/01 05:04:29;;;;;;;8.93;4.70;;;;;;;2.40;53.97;99374.91;3094477;28;20487;-70
2021/12/01 05:06:01;;;;;;;7.00;3.55;;;;;;;2.48;53.94;99395.31;3094583;28;20077;-72
2021/12/01 05:07:33;;;;;;;5.82;3.20;;;;;;;2.41;53.81;99386.88;3094901;28;20151;-71
2021/12/01 05:09:05;;;;;;;6.90;3.88;;;;;;;2.38;53.89;99378.38;3093026;28;20524;-71
2021/12/01 05:10:38;;;;;;;6.95;3.70;;;;;;;2.42;53.97;99382.59;3091666;28;20144;-72
2021/12/01 05:12:11;;;;;;;7.43;3.58;;;;;;;2.37;53.92;99381.84;3094316;28;20050;-71
2021/12/01 05:13:42;;;;;;;12.18;4.05;;;;;;;2.33;53.87;99386.16;3090873;28;20070;-71
2021/12/01 05:15:14;;;;;;;8.13;3.47;;;;;;;2.35;53.99;99391.28;3094452;28;20472;-71
2021/12/01 05:16:46;;;;;;;10.95;4.30;;;;;;;2.33;54.12;99391.31;3093720;28;20048;-70
2021/12/01 05:18:18;;;;;;;9.52;4.65;;;;;;;2.31;54.15;99389.63;3094285;28;20054;-70
2021/12/01 05:19:50;;;;;;;10.60;4.75;;;;;;;2.29;54.20;99387.09;3093536;28;20042;-71
2021/12/01 05:21:22;;;;;;;11.70;5.90;;;;;;;2.27;54.31;99401.69;3090003;28;20051;-71
2021/12/01 05:22:54;;;;;;;10.63;5.70;;;;;;;2.25;54.47;99395.75;3094453;28;20055;-71
2021/12/01 05:24:25;;;;;;;10.68;5.50;;;;;;;2.21;54.46;99388.97;3093974;28;20047;-70
2021/12/01 05:25:59;;;;;;;9.85;4.95;;;;;;;2.18;54.53;99391.59;3095151;28;20058;-70
2021/12/01 05:27:31;;;;;;;9.02;5.43;;;;;;;2.15;54.63;99394.22;3093754;28;20050;-70
2021/12/01 05:29:03;;;;;;;8.95;3.90;;;;;;;2.13;54.49;99388.25;3090947;28;20128;-70
2021/12/01 05:30:35;;;;;;;13.93;4.97;;;;;;;2.12;54.76;99389.13;3094547;28;20536;-71
2021/12/01 05:32:08;;;;;;;12.45;5.40;;;;;;;2.11;54.69;99387.44;3091516;28;20118;-71
2021/12/01 05:33:40;;;;;;;13.82;5.80;;;;;;;2.09;54.81;99389.19;3092259;28;20109;-71
2021/12/01 05:35:12;;;;;;;12.30;6.00;;;;;;;2.08;54.69;99390.06;3093682;28;20090;-70
2021/12/01 05:36:44;;;;;;;9.35;5.18;;;;;;;2.07;54.65;99393.50;3092247;28;20483;-71
2021/12/01 05:38:16;;;;;;;10.40;5.55;;;;;;;2.07;54.73;99396.06;3093963;28;20062;-70
2021/12/01 05:39:48;;;;;;;11.18;4.82;;;;;;;2.04;54.73;99397.81;3093089;28;20053;-70
2021/12/01 05:41:22;;;;;;;9.20;3.75;;;;;;;2.05;54.73;99398.66;3095070;28;20064;-70
2021/12/01 05:42:53;;;;;;;11.18;4.22;;;;;;;2.05;54.76;99393.53;3092162;28;20061;-71
2021/12/01 05:44:25;;;;;;;8.15;4.20;;;;;;;2.04;54.88;99391.81;3094325;28;20120;-71
2021/12/01 05:45:57;;;;;;;8.02;4.28;;;;;;;2.04;54.76;99387.56;3093624;28;20526;-70
2021/12/01 05:47:29;;;;;;;7.60;3.80;;;;;;;2.03;54.83;99385.84;3094617;28;20109;-70
2021/12/01 05:49:01;;;;;;;9.20;3.97;;;;;;;2.04;54.80;99392.69;3094170;28;20544;-69
2021/12/01 05:50:33;;;;;;;6.95;3.70;;;;;;;2.04;54.95;99392.69;3090670;28;20169;-70
2021/12/01 05:52:07;;;;;;;9.75;4.53;;;;;;;2.03;54.68;99390.13;3094568;28;20058;-72
2021/12/01 05:53:39;;;;;;;11.27;4.13;;;;;;;2.05;54.76;99407.22;3093724;28;20046;-72
2021/12/01 05:55:15;;;;;;;7.63;4.00;;;;;;;2.01;54.79;99391.88;3091440;28;20115;-72
2021/12/01 05:56:48;;;;;;;9.45;4.03;;;;;;;2.06;54.67;99400.34;3094212;28;20046;-75
2021/12/01 05:58:20;;;;;;;7.10;3.22;;;;;;;2.08;54.68;99395.19;3092183;28;20054;-76
2021/12/01 05:59:52;;;;;;;10.77;3.67;;;;;;;2.10;54.80;99412.28;3091723;28;20112;-79
2021/12/01 06:01:24;;;;;;;13.10;3.88;;;;;;;2.13;54.86;99416.50;3092513;28;20054;-79
2021/12/01 06:02:56;;;;;;;13.82;4.40;;;;;;;2.17;54.71;99418.16;3090929;28;20046;-74
2021/12/01 06:04:28;;;;;;;9.88;4.80;;;;;;;2.19;54.66;99432.69;3094097;28;20895;-73
2021/12/01 06:06:00;;;;;;;17.17;4.95;;;;;;;2.23;54.68;99420.63;3092960;28;20046;-74
2021/12/01 06:07:32;;;;;;;10.52;4.90;;;;;;;2.31;54.59;99416.19;3094694;28;20050;-73
2021/12/01 06:09:06;;;;;;;9.75;5.03;;;;;;;2.36;54.43;99410.97;3095057;28;20100;-71
2021/12/01 06:10:40;;;;;;;12.15;5.55;;;;;;;2.49;54.47;99418.44;3094785;28;20054;-72
2021/12/01 06:12:15;;;;;;;18.33;6.57;;;;;;;2.58;54.25;99419.16;3096387;28;20515;-72
2021/12/01 06:13:48;;;;;;;11.90;5.38;;;;;;;2.64;54.19;99411.31;3091058;28;20038;-73
2021/12/01 06:15:20;;;;;;;18.15;6.97;;;;;;;2.64;54.26;99407.00;3091602;28;20046;-73
2021/12/01 06:16:53;;;;;;;14.38;6.22;;;;;;;2.77;54.02;99417.06;3091674;28;20500;-74
2021/12/01 06:18:25;;;;;;;19.17;6.72;;;;;;;2.84;54.05;99418.63;3092539;28;20062;-73
2021/12/01 06:19:57;;;;;;;13.45;6.53;;;;;;;2.93;53.65;99427.03;3090655;28;20061;-73
2021/12/01 06:21:29;;;;;;;18.23;7.80;;;;;;;2.99;53.56;99422.59;3088781;28;20064;-74
2021/12/01 06:23:01;;;;;;;16.13;8.25;;;;;;;3.13;53.14;99433.47;3089172;28;20081;-72
2021/12/01 06:24:33;;;;;;;12.90;6.38;;;;;;;3.21;53.18;99436.72;3090616;28;20204;-74
2021/12/01 06:26:04;;;;;;;17.33;6.18;;;;;;;3.27;52.88;99443.47;3091448;28;20085;-71
2021/12/01 06:27:38;;;;;;;14.40;6.22;;;;;;;3.28;52.78;99424.56;3090147;28;20132;-73
2021/12/01 06:29:10;;;;;;;14.30;5.07;;;;;;;3.42;52.63;99444.00;3088283;28;20046;-73
2021/12/01 06:30:42;;;;;;;13.80;5.43;;;;;;;3.49;52.44;99446.44;3089330;28;20137;-73
2021/12/01 06:32:14;;;;;;;20.25;6.20;;;;;;;3.60;52.33;99452.19;3090637;28;20050;-74
2021/12/01 06:33:46;;;;;;;15.77;5.30;;;;;;;3.72;52.16;99451.91;3091275;28;20536;-74
2021/12/01 06:35:19;;;;;;;8.35;4.13;;;;;;;3.85;52.01;99440.44;3089339;28;20443;-71
2021/12/01 06:36:51;;;;;;;8.57;3.38;;;;;;;4.04;51.61;99442.59;3089377;28;20104;-73
2021/12/01 06:38:23;;;;;;;10.15;4.63;;;;;;;4.16;51.24;99434.53;3091527;28;20058;-73
2021/12/01 06:39:54;;;;;;;14.18;3.35;;;;;;;4.34;50.79;99431.50;3088996;28;20059;-73
2021/12/01 06:41:26;;;;;;;8.02;3.85;;;;;;;4.56;50.53;99433.53;3096199;28;20050;-72
2021/12/01 06:43:00;;;;;;;22.50;8.93;;;;;;;4.78;50.19;99437.22;3094979;28;20508;-71
2021/12/01 06:44:33;;;;;;;;;;;;;;;4.88;50.09;99450.72;3096900;28;20449;-71
2021/12/01 06:46:05;;;;;;;9.80;3.97;;;;;;;4.97;49.67;99442.72;3095753;28;19926;-72
2021/12/01 06:47:37;;;;;;;5.95;2.63;;;;;;;5.14;49.14;99451.72;3095615;28;20046;-70
2021/12/01 06:49:09;;;;;;;5.40;3.10;;;;;;;5.24;48.79;99455.75;3095914;28;20046;-71
2021/12/01 06:50:41;;;;;;;6.78;2.80;;;;;;;5.36;48.69;99457.13;3093212;28;20486;-72
2021/12/01 06:52:13;;;;;;;7.80;3.53;;;;;;;5.51;48.31;99459.25;3092250;28;20058;-70
2021/12/01 06:53:45;;;;;;;7.57;3.13;;;;;;;5.66;48.59;99457.94;3095642;28;20046;-70
2021/12/01 06:55:20;;;;;;;6.82;2.40;;;;;;;5.81;47.75;99462.63;3093561;28;20054;-70
2021/12/01 06:56:52;;;;;;;7.28;2.90;;;;;;;6.01;47.52;99462.03;3093965;28;20050;-70
2021/12/01 06:58:25;;;;;;;8.27;2.80;;;;;;;6.24;47.25;99463.88;3092083;28;20047;-70
2021/12/01 06:59:57;;;;;;;10.20;2.88;;;;;;;6.47;46.96;99460.50;3096477;28;20117;-70
2021/12/01 07:01:29;;;;;;;10.50;3.17;;;;;;;6.70;46.37;99456.31;3094795;28;20050;-72
2021/12/01 07:03:01;;;;;;;12.60;4.72;;;;;;;6.90;46.07;99466.81;3091228;28;20132;-71
2021/12/01 07:04:33;;;;;;;13.05;3.88;;;;;;;7.11;45.82;99474.69;3089975;28;20050;-67
2021/12/01 07:06:04;;;;;;;14.02;3.97;;;;;;;7.25;45.24;99480.22;3091182;28;20050;-71
2021/12/01 07:07:37;;;;;;;10.63;4.25;;;;;;;7.25;44.46;99468.13;3086687;28;20055;-70
2021/12/01 07:09:11;;;;;;;9.73;3.42;;;;;;;7.42;44.05;99484.75;3089630;28;20050;-71
2021/12/01 07:10:43;;;;;;;5.70;2.92;;;;;;;7.43;43.90;99471.78;3091169;28;20562;-70
2021/12/01 07:12:15;;;;;;;5.55;2.42;;;;;;;7.52;43.80;99480.94;3090768;28;20113;-74
2021/12/01 07:13:48;;;;;;;9.68;3.53;;;;;;;7.53;43.75;99475.69;3091929;28;20435;-75
2021/12/01 07:15:20;;;;;;;9.23;4.53;;;;;;;7.54;43.70;99473.94;3089844;28;20055;-74
2021/12/01 07:16:52;;;;;;;11.23;4.32;;;;;;;7.56;43.26;99473.91;3089281;28;20054;-74
2021/12/01 07:18:24;;;;;;;9.82;3.30;;;;;;;7.60;43.36;99467.69;3089292;28;20105;-77
2021/12/01 07:19:55;;;;;;;11.57;3.58;;;;;;;7.62;43.34;99469.31;3090520;28;20447;-74
2021/12/01 07:21:27;;;;;;;11.63;3.38;;;;;;;7.70;43.28;99475.06;3089062;28;20058;-77
2021/12/01 07:22:59;;;;;;;8.32;3.28;;;;;;;7.71;43.17;99460.34;3088874;28;20536;-74
2021/12/01 07:24:31;;;;;;;9.55;3.15;;;;;;;7.69;43.15;99457.81;3090316;28;20058;-74
2021/12/01 07:26:03;;;;;;;13.45;2.65;;;;;;;7.68;42.61;99457.88;3094148;28;20559;-73